sensor_id;sensor_type;location;lat;lon;timestamp;temperature;humidity
16172;DHT22;8192;53.596;10.166;2023-04-24T00:01:58;11.30;99.90
16172;DHT22;8192;53.596;10.166;2023-04-24T00:04:26;11.10;99.90
16172;DHT22;8192;53.596;10.166;2023-04-24T00:06:53;11.00;99.90
16172;DHT22;8192;53.596;10.166;2023-04-24T00:09:22;11.00;99.90
16172;DHT22;8192;53.596;10.166;2023-04-24T00:11:51;11.00;99.90
16172;DHT22;8192;53.596;10.166;2023-04-24T00:14:18;11.00;99.90
16172;DHT22;8192;53.596;10.166;2023-04-24T00:16:45;10.90;99.90
16172;DHT22;8192;53.596;10.166;2023-04-24T00:19:12;10.90;99.90
16172;DHT22;8192;53.596;10.166;2023-04-24T00:21:39;10.80;99.90
16172;DHT22;8192;53.596;10.166;2023-04-24T00:24:07;10.80;99.90
16172;DHT22;8192;53.596;10.166;2023-04-24T00:26:35;10.80;99.90
16172;DHT22;8192;53.596;10.166;2023-04-24T00:29:03;10.70;99.90
16172;DHT22;8192;53.596;10.166;2023-04-24T00:31:30;10.80;99.90
16172;DHT22;8192;53.596;10.166;2023-04-24T00:34:00;10.70;99.90
16172;DHT22;8192;53.596;10.166;2023-04-24T00:36:27;10.70;99.90
16172;DHT22;8192;53.596;10.166;2023-04-24T00:38:56;10.70;99.90
16172;DHT22;8192;53.596;10.166;2023-04-24T00:41:23;10.60;99.90
16172;DHT22;8192;53.596;10.166;2023-04-24T00:43:51;10.60;99.90
16172;DHT22;8192;53.596;10.166;2023-04-24T00:46:21;10.60;99.90
16172;DHT22;8192;53.596;10.166;2023-04-24T00:48:48;10.60;99.90
16172;DHT22;8192;53.596;10.166;2023-04-24T00:51:14;10.50;99.90
16172;DHT22;8192;53.596;10.166;2023-04-24T00:53:41;10.50;99.90
16172;DHT22;8192;53.596;10.166;2023-04-24T00:56:09;10.50;99.90
16172;DHT22;8192;53.596;10.166;2023-04-24T00:58:36;10.60;99.90
16172;DHT22;8192;53.596;10.166;2023-04-24T01:01:03;10.50;99.90
16172;DHT22;8192;53.596;10.166;2023-04-24T01:03:34;10.60;99.90
16172;DHT22;8192;53.596;10.166;2023-04-24T01:06:03;10.60;99.90
16172;DHT22;8192;53.596;10.166;2023-04-24T01:08:32;10.60;99.90
16172;DHT22;8192;53.596;10.166;2023-04-24T01:11:00;10.60;99.90
16172;DHT22;8192;53.596;10.166;2023-04-24T01:13:29;10.70;99.90
16172;DHT22;8192;53.596;10.166;2023-04-24T01:15:57;10.70;99.90
16172;DHT22;8192;53.596;10.166;2023-04-24T01:18:26;10.70;99.90
16172;DHT22;8192;53.596;10.166;2023-04-24T01:20:57;10.70;99.90
16172;DHT22;8192;53.596;10.166;2023-04-24T01:23:26;10.70;99.90
16172;DHT22;8192;53.596;10.166;2023-04-24T01:25:54;10.70;99.90
16172;DHT22;8192;53.596;10.166;2023-04-24T01:28:21;10.70;99.90
16172;DHT22;8192;53.596;10.166;2023-04-24T01:30:48;10.60;99.90
16172;DHT22;8192;53.596;10.166;2023-04-24T01:33:16;10.60;99.90
16172;DHT22;8192;53.596;10.166;2023-04-24T01:35:43;10.40;99.90
16172;DHT22;8192;53.596;10.166;2023-04-24T01:38:11;10.20;99.90
16172;DHT22;8192;53.596;10.166;2023-04-24T01:40:39;10.10;99.90
16172;DHT22;8192;53.596;10.166;2023-04-24T01:43:07;10.10;99.90
16172;DHT22;8192;53.596;10.166;2023-04-24T01:45:34;10.10;99.90
16172;DHT22;8192;53.596;10.166;2023-04-24T01:48:01;10.20;99.90
16172;DHT22;8192;53.596;10.166;2023-04-24T01:50:28;10.20;99.90
16172;DHT22;8192;53.596;10.166;2023-04-24T01:52:56;10.30;99.90
16172;DHT22;8192;53.596;10.166;2023-04-24T01:55:23;10.30;99.90
16172;DHT22;8192;53.596;10.166;2023-04-24T01:57:52;10.30;99.90
16172;DHT22;8192;53.596;10.166;2023-04-24T02:00:22;10.20;99.90
16172;DHT22;8192;53.596;10.166;2023-04-24T02:02:49;10.10;99.90
16172;DHT22;8192;53.596;10.166;2023-04-24T02:05:16;10.00;99.90
16172;DHT22;8192;53.596;10.166;2023-04-24T02:07:43;9.90;99.90
16172;DHT22;8192;53.596;10.166;2023-04-24T02:10:10;9.70;99.90
16172;DHT22;8192;53.596;10.166;2023-04-24T02:12:38;9.60;99.90
16172;DHT22;8192;53.596;10.166;2023-04-24T02:15:07;9.70;99.90
16172;DHT22;8192;53.596;10.166;2023-04-24T02:17:36;9.60;99.90
16172;DHT22;8192;53.596;10.166;2023-04-24T02:20:04;9.40;99.90
16172;DHT22;8192;53.596;10.166;2023-04-24T02:22:32;9.30;99.90
16172;DHT22;8192;53.596;10.166;2023-04-24T02:24:59;9.20;99.90
16172;DHT22;8192;53.596;10.166;2023-04-24T02:27:26;9.20;99.90
16172;DHT22;8192;53.596;10.166;2023-04-24T02:29:55;9.10;99.90
16172;DHT22;8192;53.596;10.166;2023-04-24T02:32:24;9.00;99.90
16172;DHT22;8192;53.596;10.166;2023-04-24T02:34:51;9.00;99.90
16172;DHT22;8192;53.596;10.166;2023-04-24T02:37:18;8.90;99.90
16172;DHT22;8192;53.596;10.166;2023-04-24T02:39:45;8.90;99.90
16172;DHT22;8192;53.596;10.166;2023-04-24T02:42:12;8.90;99.90
16172;DHT22;8192;53.596;10.166;2023-04-24T02:44:39;8.90;99.90
16172;DHT22;8192;53.596;10.166;2023-04-24T02:47:06;9.00;99.90
16172;DHT22;8192;53.596;10.166;2023-04-24T02:49:35;9.00;99.90
16172;DHT22;8192;53.596;10.166;2023-04-24T02:52:02;8.90;99.90
16172;DHT22;8192;53.596;10.166;2023-04-24T02:54:29;8.80;99.90
16172;DHT22;8192;53.596;10.166;2023-04-24T02:56:57;8.70;99.90
16172;DHT22;8192;53.596;10.166;2023-04-24T02:59:25;8.70;99.90
16172;DHT22;8192;53.596;10.166;2023-04-24T03:01:52;8.70;99.90
16172;DHT22;8192;53.596;10.166;2023-04-24T03:04:19;8.70;99.90
16172;DHT22;8192;53.596;10.166;2023-04-24T03:06:48;9.00;99.90
16172;DHT22;8192;53.596;10.166;2023-04-24T03:09:17;8.70;99.90
16172;DHT22;8192;53.596;10.166;2023-04-24T03:11:44;8.50;99.90
16172;DHT22;8192;53.596;10.166;2023-04-24T03:14:11;8.40;99.90
16172;DHT22;8192;53.596;10.166;2023-04-24T03:16:38;8.40;99.90
16172;DHT22;8192;53.596;10.166;2023-04-24T03:19:05;8.50;99.90
16172;DHT22;8192;53.596;10.166;2023-04-24T03:21:32;8.40;99.90
16172;DHT22;8192;53.596;10.166;2023-04-24T03:24:02;8.50;99.90
16172;DHT22;8192;53.596;10.166;2023-04-24T03:26:30;8.40;99.90
16172;DHT22;8192;53.596;10.166;2023-04-24T03:28:57;8.40;99.90
16172;DHT22;8192;53.596;10.166;2023-04-24T03:31:25;8.40;99.90
16172;DHT22;8192;53.596;10.166;2023-04-24T03:33:52;8.30;99.90
16172;DHT22;8192;53.596;10.166;2023-04-24T03:36:20;8.20;99.90
16172;DHT22;8192;53.596;10.166;2023-04-24T03:38:47;8.30;99.90
16172;DHT22;8192;53.596;10.166;2023-04-24T03:41:17;8.30;99.90
16172;DHT22;8192;53.596;10.166;2023-04-24T03:43:44;8.30;99.90
16172;DHT22;8192;53.596;10.166;2023-04-24T03:46:11;8.30;99.90
16172;DHT22;8192;53.596;10.166;2023-04-24T03:48:38;8.30;99.90
16172;DHT22;8192;53.596;10.166;2023-04-24T03:51:05;8.30;99.90
16172;DHT22;8192;53.596;10.166;2023-04-24T03:53:32;9.00;99.90
16172;DHT22;8192;53.596;10.166;2023-04-24T03:55:59;7.50;99.90
16172;DHT22;8192;53.596;10.166;2023-04-24T03:58:28;8.20;99.90
16172;DHT22;8192;53.596;10.166;2023-04-24T04:00:55;8.20;99.90
16172;DHT22;8192;53.596;10.166;2023-04-24T04:03:23;8.30;99.90
16172;DHT22;8192;53.596;10.166;2023-04-24T04:05:51;8.20;99.90
16172;DHT22;8192;53.596;10.166;2023-04-24T04:08:18;8.30;99.90
16172;DHT22;8192;53.596;10.166;2023-04-24T04:10:45;8.00;99.90
16172;DHT22;8192;53.596;10.166;2023-04-24T04:13:12;8.10;99.90
16172;DHT22;8192;53.596;10.166;2023-04-24T04:15:46;8.00;99.90
16172;DHT22;8192;53.596;10.166;2023-04-24T04:18:13;8.50;99.90
16172;DHT22;8192;53.596;10.166;2023-04-24T04:20:40;8.00;99.90
16172;DHT22;8192;53.596;10.166;2023-04-24T04:23:07;8.10;99.90
16172;DHT22;8192;53.596;10.166;2023-04-24T04:25:34;8.10;99.90
16172;DHT22;8192;53.596;10.166;2023-04-24T04:28:02;8.50;99.90
16172;DHT22;8192;53.596;10.166;2023-04-24T04:30:29;8.00;99.90
16172;DHT22;8192;53.596;10.166;2023-04-24T04:32:59;8.10;99.90
16172;DHT22;8192;53.596;10.166;2023-04-24T04:35:26;8.00;99.90
16172;DHT22;8192;53.596;10.166;2023-04-24T04:37:53;8.10;99.90
16172;DHT22;8192;53.596;10.166;2023-04-24T04:40:21;8.50;99.90
16172;DHT22;8192;53.596;10.166;2023-04-24T04:42:55;8.10;99.90
16172;DHT22;8192;53.596;10.166;2023-04-24T04:45:22;8.00;99.90
16172;DHT22;8192;53.596;10.166;2023-04-24T04:47:49;8.10;99.90
16172;DHT22;8192;53.596;10.166;2023-04-24T04:50:18;8.10;99.90
16172;DHT22;8192;53.596;10.166;2023-04-24T04:52:46;8.20;99.90
16172;DHT22;8192;53.596;10.166;2023-04-24T04:55:13;8.10;99.90
16172;DHT22;8192;53.596;10.166;2023-04-24T04:57:40;8.20;99.90
16172;DHT22;8192;53.596;10.166;2023-04-24T05:00:08;8.20;99.90
16172;DHT22;8192;53.596;10.166;2023-04-24T05:02:37;8.30;99.90
16172;DHT22;8192;53.596;10.166;2023-04-24T05:05:05;8.50;99.90
16172;DHT22;8192;53.596;10.166;2023-04-24T05:07:33;9.00;99.90
16172;DHT22;8192;53.596;10.166;2023-04-24T05:10:00;9.80;99.90
16172;DHT22;8192;53.596;10.166;2023-04-24T05:12:27;10.90;99.90
16172;DHT22;8192;53.596;10.166;2023-04-24T05:14:54;11.90;99.90
16172;DHT22;8192;53.596;10.166;2023-04-24T05:17:21;12.80;99.90
16172;DHT22;8192;53.596;10.166;2023-04-24T05:19:48;13.50;99.90
16172;DHT22;8192;53.596;10.166;2023-04-24T05:22:16;13.80;99.90
16172;DHT22;8192;53.596;10.166;2023-04-24T05:24:47;14.00;99.90
16172;DHT22;8192;53.596;10.166;2023-04-24T05:27:14;14.60;99.90
16172;DHT22;8192;53.596;10.166;2023-04-24T05:29:41;14.90;99.90
16172;DHT22;8192;53.596;10.166;2023-04-24T05:32:09;14.60;99.90
16172;DHT22;8192;53.596;10.166;2023-04-24T05:34:37;15.00;99.90
16172;DHT22;8192;53.596;10.166;2023-04-24T05:37:04;15.30;99.90
16172;DHT22;8192;53.596;10.166;2023-04-24T05:39:33;15.40;99.90
16172;DHT22;8192;53.596;10.166;2023-04-24T05:42:02;15.60;99.90
16172;DHT22;8192;53.596;10.166;2023-04-24T05:44:30;15.40;99.90
16172;DHT22;8192;53.596;10.166;2023-04-24T05:46:57;15.30;99.90
16172;DHT22;8192;53.596;10.166;2023-04-24T05:49:24;15.70;99.90
16172;DHT22;8192;53.596;10.166;2023-04-24T05:51:51;15.70;99.90
16172;DHT22;8192;53.596;10.166;2023-04-24T05:54:18;15.10;99.90
16172;DHT22;8192;53.596;10.166;2023-04-24T05:56:45;15.10;99.90
16172;DHT22;8192;53.596;10.166;2023-04-24T05:59:14;15.40;99.90
16172;DHT22;8192;53.596;10.166;2023-04-24T06:01:40;15.00;99.90
16172;DHT22;8192;53.596;10.166;2023-04-24T06:04:08;14.90;99.90
16172;DHT22;8192;53.596;10.166;2023-04-24T06:06:35;14.80;99.90
16172;DHT22;8192;53.596;10.166;2023-04-24T06:09:02;14.80;99.90
16172;DHT22;8192;53.596;10.166;2023-04-24T06:11:30;15.10;99.90
16172;DHT22;8192;53.596;10.166;2023-04-24T06:13:57;15.40;99.90
16172;DHT22;8192;53.596;10.166;2023-04-24T06:16:25;15.90;99.90
16172;DHT22;8192;53.596;10.166;2023-04-24T06:18:52;15.90;99.90
16172;DHT22;8192;53.596;10.166;2023-04-24T06:21:20;15.90;99.90
16172;DHT22;8192;53.596;10.166;2023-04-24T06:23:47;16.20;99.90
16172;DHT22;8192;53.596;10.166;2023-04-24T06:26:15;16.30;99.90
16172;DHT22;8192;53.596;10.166;2023-04-24T06:28:42;16.50;99.90
16172;DHT22;8192;53.596;10.166;2023-04-24T06:31:09;16.00;99.90
16172;DHT22;8192;53.596;10.166;2023-04-24T06:33:37;16.00;99.90
16172;DHT22;8192;53.596;10.166;2023-04-24T06:36:04;16.50;99.90
16172;DHT22;8192;53.596;10.166;2023-04-24T06:38:31;16.70;99.90
16172;DHT22;8192;53.596;10.166;2023-04-24T06:40:59;16.70;99.90
16172;DHT22;8192;53.596;10.166;2023-04-24T06:43:26;16.80;99.90
16172;DHT22;8192;53.596;10.166;2023-04-24T06:45:53;16.60;99.90
16172;DHT22;8192;53.596;10.166;2023-04-24T06:48:20;15.90;99.90
16172;DHT22;8192;53.596;10.166;2023-04-24T06:50:48;16.60;99.90
16172;DHT22;8192;53.596;10.166;2023-04-24T06:53:15;17.30;99.90
16172;DHT22;8192;53.596;10.166;2023-04-24T06:55:43;17.80;99.90
16172;DHT22;8192;53.596;10.166;2023-04-24T06:58:13;17.80;99.90
16172;DHT22;8192;53.596;10.166;2023-04-24T07:00:41;17.30;99.90
16172;DHT22;8192;53.596;10.166;2023-04-24T07:03:08;17.30;99.90
16172;DHT22;8192;53.596;10.166;2023-04-24T07:05:35;17.20;99.90
16172;DHT22;8192;53.596;10.166;2023-04-24T07:08:05;17.20;99.90
16172;DHT22;8192;53.596;10.166;2023-04-24T07:10:32;17.10;99.90
16172;DHT22;8192;53.596;10.166;2023-04-24T07:13:01;17.10;99.90
16172;DHT22;8192;53.596;10.166;2023-04-24T07:15:28;17.30;99.90
16172;DHT22;8192;53.596;10.166;2023-04-24T07:17:55;17.70;99.90
16172;DHT22;8192;53.596;10.166;2023-04-24T07:20:22;18.40;99.90
16172;DHT22;8192;53.596;10.166;2023-04-24T07:22:49;18.50;99.90
16172;DHT22;8192;53.596;10.166;2023-04-24T07:25:18;17.30;99.90
16172;DHT22;8192;53.596;10.166;2023-04-24T07:27:45;17.50;99.90
16172;DHT22;8192;53.596;10.166;2023-04-24T07:30:14;18.30;99.90
16172;DHT22;8192;53.596;10.166;2023-04-24T07:32:41;19.00;99.90
16172;DHT22;8192;53.596;10.166;2023-04-24T07:35:09;18.20;99.90
16172;DHT22;8192;53.596;10.166;2023-04-24T07:37:36;17.90;99.90
16172;DHT22;8192;53.596;10.166;2023-04-24T07:40:04;17.70;99.90
16172;DHT22;8192;53.596;10.166;2023-04-24T07:42:32;17.70;99.90
16172;DHT22;8192;53.596;10.166;2023-04-24T07:45:00;17.20;99.90
16172;DHT22;8192;53.596;10.166;2023-04-24T07:47:27;16.50;99.90
16172;DHT22;8192;53.596;10.166;2023-04-24T07:49:54;15.60;99.90
16172;DHT22;8192;53.596;10.166;2023-04-24T07:52:21;15.50;99.90
16172;DHT22;8192;53.596;10.166;2023-04-24T07:54:47;15.20;99.90
16172;DHT22;8192;53.596;10.166;2023-04-24T07:57:15;15.40;99.90
16172;DHT22;8192;53.596;10.166;2023-04-24T07:59:44;15.30;99.90
16172;DHT22;8192;53.596;10.166;2023-04-24T08:02:11;15.10;99.90
16172;DHT22;8192;53.596;10.166;2023-04-24T08:04:38;15.50;99.90
16172;DHT22;8192;53.596;10.166;2023-04-24T08:07:06;16.20;99.90
16172;DHT22;8192;53.596;10.166;2023-04-24T08:09:33;16.10;99.90
16172;DHT22;8192;53.596;10.166;2023-04-24T08:12:00;15.90;99.90
16172;DHT22;8192;53.596;10.166;2023-04-24T08:14:28;15.40;99.90
16172;DHT22;8192;53.596;10.166;2023-04-24T08:16:56;15.10;99.90
16172;DHT22;8192;53.596;10.166;2023-04-24T08:19:25;14.90;99.90
16172;DHT22;8192;53.596;10.166;2023-04-24T08:21:52;15.00;99.90
16172;DHT22;8192;53.596;10.166;2023-04-24T08:24:19;15.00;99.90
16172;DHT22;8192;53.596;10.166;2023-04-24T08:26:46;14.90;99.90
16172;DHT22;8192;53.596;10.166;2023-04-24T08:29:16;14.90;99.90
16172;DHT22;8192;53.596;10.166;2023-04-24T08:31:45;14.90;99.90
16172;DHT22;8192;53.596;10.166;2023-04-24T08:34:15;14.80;99.90
16172;DHT22;8192;53.596;10.166;2023-04-24T08:36:42;15.00;99.90
16172;DHT22;8192;53.596;10.166;2023-04-24T08:39:09;15.20;99.90
16172;DHT22;8192;53.596;10.166;2023-04-24T08:41:37;14.70;99.90
16172;DHT22;8192;53.596;10.166;2023-04-24T08:44:05;14.80;99.90
16172;DHT22;8192;53.596;10.166;2023-04-24T08:46:33;14.60;99.90
16172;DHT22;8192;53.596;10.166;2023-04-24T08:49:00;14.30;99.90
16172;DHT22;8192;53.596;10.166;2023-04-24T08:51:29;14.50;99.90
16172;DHT22;8192;53.596;10.166;2023-04-24T08:53:57;14.70;99.90
16172;DHT22;8192;53.596;10.166;2023-04-24T08:56:24;14.80;99.90
16172;DHT22;8192;53.596;10.166;2023-04-24T08:58:54;14.80;99.90
16172;DHT22;8192;53.596;10.166;2023-04-24T09:01:21;15.00;99.90
16172;DHT22;8192;53.596;10.166;2023-04-24T09:03:49;14.60;99.90
16172;DHT22;8192;53.596;10.166;2023-04-24T09:06:17;14.20;99.90
16172;DHT22;8192;53.596;10.166;2023-04-24T09:08:47;14.60;99.90
16172;DHT22;8192;53.596;10.166;2023-04-24T09:11:15;14.70;99.90
16172;DHT22;8192;53.596;10.166;2023-04-24T09:13:43;15.00;99.90
16172;DHT22;8192;53.596;10.166;2023-04-24T09:16:10;15.00;99.90
16172;DHT22;8192;53.596;10.166;2023-04-24T09:18:38;14.40;99.90
16172;DHT22;8192;53.596;10.166;2023-04-24T09:21:07;14.60;99.90
16172;DHT22;8192;53.596;10.166;2023-04-24T09:23:34;14.70;99.90
16172;DHT22;8192;53.596;10.166;2023-04-24T09:26:03;14.80;99.90
16172;DHT22;8192;53.596;10.166;2023-04-24T09:28:32;14.90;99.90
16172;DHT22;8192;53.596;10.166;2023-04-24T09:31:09;14.90;99.90
16172;DHT22;8192;53.596;10.166;2023-04-24T09:33:36;14.80;99.90
16172;DHT22;8192;53.596;10.166;2023-04-24T09:36:04;14.60;99.90
16172;DHT22;8192;53.596;10.166;2023-04-24T09:38:32;14.50;99.90
16172;DHT22;8192;53.596;10.166;2023-04-24T09:41:01;14.40;99.90
16172;DHT22;8192;53.596;10.166;2023-04-24T09:43:30;14.40;99.90
16172;DHT22;8192;53.596;10.166;2023-04-24T09:45:58;14.30;99.90
16172;DHT22;8192;53.596;10.166;2023-04-24T09:48:33;14.50;99.90
16172;DHT22;8192;53.596;10.166;2023-04-24T09:51:04;14.80;99.90
16172;DHT22;8192;53.596;10.166;2023-04-24T09:53:32;15.00;99.90
16172;DHT22;8192;53.596;10.166;2023-04-24T09:56:02;15.20;99.90
16172;DHT22;8192;53.596;10.166;2023-04-24T09:58:32;15.10;99.90
16172;DHT22;8192;53.596;10.166;2023-04-24T10:00:59;15.10;99.90
16172;DHT22;8192;53.596;10.166;2023-04-24T10:03:27;14.80;99.90
16172;DHT22;8192;53.596;10.166;2023-04-24T10:05:58;14.90;99.90
16172;DHT22;8192;53.596;10.166;2023-04-24T10:08:26;15.00;99.90
16172;DHT22;8192;53.596;10.166;2023-04-24T10:11:00;14.90;99.90
16172;DHT22;8192;53.596;10.166;2023-04-24T10:13:28;14.90;99.90
16172;DHT22;8192;53.596;10.166;2023-04-24T10:15:58;15.50;99.90
16172;DHT22;8192;53.596;10.166;2023-04-24T10:18:27;15.00;99.90
16172;DHT22;8192;53.596;10.166;2023-04-24T10:20:54;15.10;99.90
16172;DHT22;8192;53.596;10.166;2023-04-24T10:23:22;15.30;99.90
16172;DHT22;8192;53.596;10.166;2023-04-24T10:25:49;15.50;99.90
16172;DHT22;8192;53.596;10.166;2023-04-24T10:28:19;15.20;99.90
16172;DHT22;8192;53.596;10.166;2023-04-24T10:30:47;14.60;99.90
16172;DHT22;8192;53.596;10.166;2023-04-24T10:33:17;14.20;99.90
16172;DHT22;8192;53.596;10.166;2023-04-24T10:35:46;11.80;99.90
16172;DHT22;8192;53.596;10.166;2023-04-24T10:38:18;13.30;99.90
16172;DHT22;8192;53.596;10.166;2023-04-24T10:40:49;13.60;99.90
16172;DHT22;8192;53.596;10.166;2023-04-24T10:43:18;14.00;99.90
16172;DHT22;8192;53.596;10.166;2023-04-24T10:46:00;14.20;99.90
16172;DHT22;8192;53.596;10.166;2023-04-24T10:48:30;14.30;99.90
16172;DHT22;8192;53.596;10.166;2023-04-24T10:50:58;14.10;99.90
16172;DHT22;8192;53.596;10.166;2023-04-24T10:53:28;13.90;99.90
16172;DHT22;8192;53.596;10.166;2023-04-24T10:55:59;13.60;99.90
16172;DHT22;8192;53.596;10.166;2023-04-24T10:58:36;13.50;99.90
16172;DHT22;8192;53.596;10.166;2023-04-24T11:01:04;13.30;99.90
16172;DHT22;8192;53.596;10.166;2023-04-24T11:03:34;13.10;99.90
16172;DHT22;8192;53.596;10.166;2023-04-24T11:06:02;13.00;99.90
16172;DHT22;8192;53.596;10.166;2023-04-24T11:08:32;13.00;99.90
16172;DHT22;8192;53.596;10.166;2023-04-24T11:11:02;13.10;99.90
16172;DHT22;8192;53.596;10.166;2023-04-24T11:16:31;13.90;99.90
16172;DHT22;8192;53.596;10.166;2023-04-24T11:19:05;14.80;99.90
16172;DHT22;8192;53.596;10.166;2023-04-24T11:21:39;14.90;99.90
16172;DHT22;8192;53.596;10.166;2023-04-24T11:24:28;14.90;99.10
16172;DHT22;8192;53.596;10.166;2023-04-24T11:26:57;14.80;99.30
16172;DHT22;8192;53.596;10.166;2023-04-24T11:29:39;15.10;99.60
16172;DHT22;8192;53.596;10.166;2023-04-24T11:32:28;15.50;99.50
16172;DHT22;8192;53.596;10.166;2023-04-24T11:34:59;16.40;99.90
16172;DHT22;8192;53.596;10.166;2023-04-24T11:37:27;16.80;99.90
16172;DHT22;8192;53.596;10.166;2023-04-24T11:39:56;16.60;95.90
16172;DHT22;8192;53.596;10.166;2023-04-24T11:42:23;16.10;94.60
16172;DHT22;8192;53.596;10.166;2023-04-24T11:44:52;15.50;93.30
16172;DHT22;8192;53.596;10.166;2023-04-24T11:47:20;14.60;90.80
16172;DHT22;8192;53.596;10.166;2023-04-24T11:49:50;14.40;91.70
16172;DHT22;8192;53.596;10.166;2023-04-24T11:52:19;14.10;91.70
16172;DHT22;8192;53.596;10.166;2023-04-24T11:54:48;14.00;91.30
16172;DHT22;8192;53.596;10.166;2023-04-24T11:57:15;14.10;91.70
16172;DHT22;8192;53.596;10.166;2023-04-24T11:59:42;14.40;91.50
16172;DHT22;8192;53.596;10.166;2023-04-24T12:02:20;14.70;91.90
16172;DHT22;8192;53.596;10.166;2023-04-24T12:04:47;15.10;92.40
16172;DHT22;8192;53.596;10.166;2023-04-24T12:07:14;15.40;92.30
16172;DHT22;8192;53.596;10.166;2023-04-24T12:09:43;15.00;86.10
16172;DHT22;8192;53.596;10.166;2023-04-24T12:12:11;14.90;86.20
16172;DHT22;8192;53.596;10.166;2023-04-24T12:14:48;14.90;85.50
16172;DHT22;8192;53.596;10.166;2023-04-24T12:17:16;15.00;81.40
16172;DHT22;8192;53.596;10.166;2023-04-24T12:19:48;15.00;82.20
16172;DHT22;8192;53.596;10.166;2023-04-24T12:22:16;15.20;81.50
16172;DHT22;8192;53.596;10.166;2023-04-24T12:25:00;15.40;74.60
16172;DHT22;8192;53.596;10.166;2023-04-24T12:30:01;15.30;73.80
16172;DHT22;8192;53.596;10.166;2023-04-24T12:32:28;15.50;77.20
16172;DHT22;8192;53.596;10.166;2023-04-24T12:34:55;15.40;71.00
16172;DHT22;8192;53.596;10.166;2023-04-24T12:37:26;15.40;76.40
16172;DHT22;8192;53.596;10.166;2023-04-24T12:42:29;15.20;68.90
16172;DHT22;8192;53.596;10.166;2023-04-24T12:44:57;15.20;66.70
16172;DHT22;8192;53.596;10.166;2023-04-24T12:52:29;14.30;71.70
16172;DHT22;8192;53.596;10.166;2023-04-24T12:54:58;14.00;72.00
16172;DHT22;8192;53.596;10.166;2023-04-24T12:57:28;13.80;73.90
16172;DHT22;8192;53.596;10.166;2023-04-24T12:59:56;13.50;75.30
16172;DHT22;8192;53.596;10.166;2023-04-24T13:02:25;13.30;74.00
16172;DHT22;8192;53.596;10.166;2023-04-24T13:07:21;13.00;79.60
16172;DHT22;8192;53.596;10.166;2023-04-24T13:09:49;12.80;78.90
16172;DHT22;8192;53.596;10.166;2023-04-24T13:14:46;12.60;76.10
16172;DHT22;8192;53.596;10.166;2023-04-24T13:19:44;12.70;82.30
16172;DHT22;8192;53.596;10.166;2023-04-24T13:22:12;12.70;81.80
16172;DHT22;8192;53.596;10.166;2023-04-24T13:44:22;11.70;99.90
16172;DHT22;8192;53.596;10.166;2023-04-24T13:46:51;11.70;99.90
16172;DHT22;8192;53.596;10.166;2023-04-24T13:49:21;11.60;99.90
16172;DHT22;8192;53.596;10.166;2023-04-24T13:51:50;11.50;99.90
16172;DHT22;8192;53.596;10.166;2023-04-24T13:54:17;11.50;99.90
16172;DHT22;8192;53.596;10.166;2023-04-24T13:56:44;11.60;99.90
16172;DHT22;8192;53.596;10.166;2023-04-24T13:59:12;11.80;99.90
16172;DHT22;8192;53.596;10.166;2023-04-24T14:04:07;12.20;99.90
16172;DHT22;8192;53.596;10.166;2023-04-24T14:33:51;11.50;99.90
16172;DHT22;8192;53.596;10.166;2023-04-24T14:36:18;11.50;99.90
16172;DHT22;8192;53.596;10.166;2023-04-24T14:38:45;11.70;99.90
16172;DHT22;8192;53.596;10.166;2023-04-24T14:43:41;12.00;99.90
16172;DHT22;8192;53.596;10.166;2023-04-24T14:46:08;12.10;99.90
16172;DHT22;8192;53.596;10.166;2023-04-24T14:48:35;12.10;99.90
16172;DHT22;8192;53.596;10.166;2023-04-24T14:51:02;12.10;99.90
16172;DHT22;8192;53.596;10.166;2023-04-24T15:06:05;11.60;99.90
16172;DHT22;8192;53.596;10.166;2023-04-24T15:08:42;11.50;99.90
16172;DHT22;8192;53.596;10.166;2023-04-24T15:11:10;10.70;99.90
16172;DHT22;8192;53.596;10.166;2023-04-24T15:18:37;10.40;99.90
16172;DHT22;8192;53.596;10.166;2023-04-24T15:28:35;10.20;99.90
16172;DHT22;8192;53.596;10.166;2023-04-24T15:33:49;10.00;99.90
16172;DHT22;8192;53.596;10.166;2023-04-24T15:38:44;9.80;99.90
16172;DHT22;8192;53.596;10.166;2023-04-24T15:41:11;9.50;99.90
16172;DHT22;8192;53.596;10.166;2023-04-24T15:43:38;9.50;99.90
16172;DHT22;8192;53.596;10.166;2023-04-24T15:54:00;9.20;99.90
16172;DHT22;8192;53.596;10.166;2023-04-24T15:58:54;9.10;99.90
16172;DHT22;8192;53.596;10.166;2023-04-24T16:01:42;9.10;99.90
16172;DHT22;8192;53.596;10.166;2023-04-24T16:04:09;9.10;99.90
16172;DHT22;8192;53.596;10.166;2023-04-24T16:09:07;8.90;99.90
16172;DHT22;8192;53.596;10.166;2023-04-24T16:14:04;8.70;99.90
16172;DHT22;8192;53.596;10.166;2023-04-24T16:16:39;8.70;99.90
16172;DHT22;8192;53.596;10.166;2023-04-24T16:23:20;8.60;99.90
16172;DHT22;8192;53.596;10.166;2023-04-24T16:30:36;8.40;99.90
16172;DHT22;8192;53.596;10.166;2023-04-24T16:36:11;8.10;99.90
16172;DHT22;8192;53.596;10.166;2023-04-24T16:38:57;8.00;99.90
16172;DHT22;8192;53.596;10.166;2023-04-24T16:41:25;8.00;99.90
16172;DHT22;8192;53.596;10.166;2023-04-24T16:43:53;7.90;99.90
16172;DHT22;8192;53.596;10.166;2023-04-24T16:47:13;7.70;99.90
16172;DHT22;8192;53.596;10.166;2023-04-24T16:49:43;7.60;99.90
16172;DHT22;8192;53.596;10.166;2023-04-24T16:52:10;7.50;99.90
16172;DHT22;8192;53.596;10.166;2023-04-24T16:54:37;7.40;99.90
16172;DHT22;8192;53.596;10.166;2023-04-24T17:03:36;7.30;99.90
16172;DHT22;8192;53.596;10.166;2023-04-24T17:08:04;7.30;99.90
16172;DHT22;8192;53.596;10.166;2023-04-24T17:10:31;7.20;99.90
16172;DHT22;8192;53.596;10.166;2023-04-24T17:12:58;7.20;99.90
16172;DHT22;8192;53.596;10.166;2023-04-24T17:15:25;7.10;99.90
16172;DHT22;8192;53.596;10.166;2023-04-24T17:17:52;7.10;99.90
16172;DHT22;8192;53.596;10.166;2023-04-24T17:20:19;7.10;99.90
16172;DHT22;8192;53.596;10.166;2023-04-24T17:22:46;7.10;99.90
16172;DHT22;8192;53.596;10.166;2023-04-24T17:25:15;7.00;99.90
16172;DHT22;8192;53.596;10.166;2023-04-24T17:27:43;7.00;99.90
16172;DHT22;8192;53.596;10.166;2023-04-24T17:30:12;7.00;99.90
16172;DHT22;8192;53.596;10.166;2023-04-24T17:32:40;7.00;99.90
16172;DHT22;8192;53.596;10.166;2023-04-24T17:35:08;7.00;99.90
16172;DHT22;8192;53.596;10.166;2023-04-24T17:37:35;7.00;99.90
16172;DHT22;8192;53.596;10.166;2023-04-24T17:40:02;7.10;99.90
16172;DHT22;8192;53.596;10.166;2023-04-24T17:42:31;7.10;99.90
16172;DHT22;8192;53.596;10.166;2023-04-24T17:44:57;7.20;99.90
16172;DHT22;8192;53.596;10.166;2023-04-24T17:47:39;7.20;99.90
16172;DHT22;8192;53.596;10.166;2023-04-24T17:50:07;7.10;99.90
16172;DHT22;8192;53.596;10.166;2023-04-24T17:52:34;7.20;99.90
16172;DHT22;8192;53.596;10.166;2023-04-24T17:55:07;7.20;99.90
16172;DHT22;8192;53.596;10.166;2023-04-24T17:57:36;7.20;99.90
16172;DHT22;8192;53.596;10.166;2023-04-24T18:00:12;7.20;99.90
16172;DHT22;8192;53.596;10.166;2023-04-24T18:02:40;7.20;99.90